Sky Ever — DSQX9 — position and weather

sailwx.info

Track history (hours):
 
Tides and Currents Weather Stations Pressure Air Temp Water Temp Dewpoint Dewpoint Depression Visibility Wind Speed Wind Dir Waves Ship Positions

Sky Ever

Last reported at 2014-Nov-14 09:15 UTC. Time now 2014-Nov-25 01:35 UTC.
Position N 34°36' E 134°55'.
Warning: this ship's position is 10 days out of date.

Length 76 m; draft 3.6 m.

Type: Cargo ship. MMSI: 441751000.

Date/timePositionNaut miles runAvg speedWind from/ knotsBaromVisibWave heightAir tempDewpointWater temp
2014-Nov-14 09:15N 34°36' E 134°55'5 7.4
2014-Nov-14 08:33N 34°37' E 135°02'8 8.3
2014-Nov-14 07:33N 34°36' E 135°12'9 8.6
2014-Nov-14 06:33N 34°37' E 135°22'5 2.4
2014-Nov-14 04:30N 34°39' E 135°28'0 0.0
2014-Nov-14 03:18N 34°39' E 135°28'0 0.0
2014-Nov-14 01:06N 34°39' E 135°28'0 0.0
2014-Nov-14 00:11N 34°39' E 135°28'0 0.0
2014-Nov-13 23:29N 34°39' E 135°28'0 0.0
2014-Nov-13 22:29N 34°39' E 135°28'0 0.0
2014-Nov-13 21:29N 34°39' E 135°28'0 0.0
2014-Nov-13 20:29N 34°39' E 135°28'0 0.0
2014-Nov-13 19:23N 34°39' E 135°28'0 0.0
2014-Nov-13 18:23N 34°39' E 135°28'0 0.0
2014-Nov-13 17:29N 34°39' E 135°28'0 0.0
2014-Nov-13 16:33N 34°39' E 135°28'0 0.0
2014-Nov-13 15:28N 34°39' E 135°28'0 0.0
2014-Nov-13 14:16N 34°39' E 135°28'0 0.0
2014-Nov-13 13:28N 34°39' E 135°28'0 0.0
2014-Nov-13 12:22N 34°39' E 135°28'0 0.0
2014-Nov-13 11:28N 34°39' E 135°28'0 0.0
2014-Nov-13 10:28N 34°39' E 135°28'0 0.0
2014-Nov-13 09:22N 34°39' E 135°28'0 0.0
2014-Nov-13 08:28N 34°39' E 135°28'0 0.0
2014-Nov-13 07:04N 34°39' E 135°28'0 0.0
2014-Nov-13 06:28N 34°39' E 135°28'1 0.1
2014-Nov-13 01:33N 34°39' E 135°27'9 8.7
2014-Nov-13 00:34N 34°36' E 135°17'10 9.9
2014-Nov-12 23:33N 34°35' E 135°05'10 9.5
2014-Nov-12 22:32N 34°35' E 134°53'  
Track history (hours):
 
Tides and Currents Weather Stations Pressure Air Temp Water Temp Dewpoint Dewpoint Depression Visibility Wind Speed Wind Dir Waves Ship Positions

Sky Ever

Last reported at 2014-Nov-14 09:15 UTC. Time now 2014-Nov-25 01:35 UTC.
Position N 34°36' E 134°55'.
Warning: this ship's position is 10 days out of date.

Length 76 m; draft 3.6 m.

Type: Cargo ship. MMSI: 441751000.

Date/timePositionNaut miles runAvg speedWind from/ knotsBaromVisibWave heightAir tempDewpointWater temp
2014-Nov-14 09:15N 34°36' E 134°55'5 7.4
2014-Nov-14 08:33N 34°37' E 135°02'8 8.3
2014-Nov-14 07:33N 34°36' E 135°12'9 8.6
2014-Nov-14 06:33N 34°37' E 135°22'5 2.4
2014-Nov-14 04:30N 34°39' E 135°28'0 0.0
2014-Nov-14 03:18N 34°39' E 135°28'0 0.0
2014-Nov-14 01:06N 34°39' E 135°28'0 0.0
2014-Nov-14 00:11N 34°39' E 135°28'0 0.0
2014-Nov-13 23:29N 34°39' E 135°28'0 0.0
2014-Nov-13 22:29N 34°39' E 135°28'0 0.0
2014-Nov-13 21:29N 34°39' E 135°28'0 0.0
2014-Nov-13 20:29N 34°39' E 135°28'0 0.0
2014-Nov-13 19:23N 34°39' E 135°28'0 0.0
2014-Nov-13 18:23N 34°39' E 135°28'0 0.0
2014-Nov-13 17:29N 34°39' E 135°28'0 0.0
2014-Nov-13 16:33N 34°39' E 135°28'0 0.0
2014-Nov-13 15:28N 34°39' E 135°28'0 0.0
2014-Nov-13 14:16N 34°39' E 135°28'0 0.0
2014-Nov-13 13:28N 34°39' E 135°28'0 0.0
2014-Nov-13 12:22N 34°39' E 135°28'0 0.0
2014-Nov-13 11:28N 34°39' E 135°28'0 0.0
2014-Nov-13 10:28N 34°39' E 135°28'0 0.0
2014-Nov-13 09:22N 34°39' E 135°28'0 0.0
2014-Nov-13 08:28N 34°39' E 135°28'0 0.0
2014-Nov-13 07:04N 34°39' E 135°28'0 0.0
2014-Nov-13 06:28N 34°39' E 135°28'1 0.1
2014-Nov-13 01:33N 34°39' E 135°27'9 8.7
2014-Nov-13 00:34N 34°36' E 135°17'10 9.9
2014-Nov-12 23:33N 34°35' E 135°05'10 9.5
2014-Nov-12 22:32N 34°35' E 134°53'  

Dump ship's entire track history